Flight Track Log - Related Links

Times and Time Zones

All times are in EDT time to prevent confusion due to time zone crossing. See the FDX1406 flight status page for this flight to view local times or setup timezone preferences in your user account.

Time Position Orientation Groundspeed Altitude Reporting Facility
EDT Latitude Longitude Course Direction KTS MPH feet Rate Location/Type
Fri 03:51:40 AM 35.0167 -89.9667 180° South 201 231 1,300  Level KMEM
Fri 03:52:24 AM 34.9667 -89.9667 180° South 225 259 2,400 2,289 Climbing KMEM
Fri 03:53:17 AM 34.9000 -89.9333 158° South 272 313 5,000 3,000 Climbing KMEM
Fri 03:54:24 AM 34.9000 -89.8333 90° East 295 339 8,400 2,245 Climbing KMEM
Fri 03:55:44 AM 34.9722 -89.7158 53° Northeast 310 357 10,500 1,543 Climbing Memphis Center
Fri 03:56:44 AM 35.0278 -89.5939 61° Northeast 362 417 12,000 1,750 Climbing Memphis Center
Fri 03:57:44 AM 35.0856 -89.4664 61° Northeast 414 476 14,000 2,050 Climbing Memphis Center
Fri 03:58:44 AM 35.1492 -89.3311 60° Northeast 445 512 16,100 2,050 Climbing Memphis Center
Fri 03:59:44 AM 35.2167 -89.1906 60° Northeast 465 535 18,100 2,050 Climbing Memphis Center
Fri 04:00:44 AM 35.2883 -89.0494 58° Northeast 475 547 20,200 2,050 Climbing Memphis Center
Fri 04:01:44 AM 35.3597 -88.9058 59° Northeast 488 562 22,200 1,938 Climbing Memphis Center
Fri 04:07:08 AM 35.7720 -88.1040 59° Northeast 506 582 32,600 1,873 Climbing FlightAware ADS-B
Fri 04:08:02 AM 35.8400 -87.9690 58° Northeast 507 583 34,000 1,440 Climbing FlightAware ADS-B
Fri 04:08:48 AM 35.8970 -87.8560 58° Northeast 505 581 35,000 698 Climbing FlightAware ADS-B
Fri 04:09:28 AM 35.9460 -87.7590 58° Northeast 502 578 35,000  Level FlightAware ADS-B
Fri 04:10:06 AM 35.9920 -87.6660 59° Northeast 501 577 35,000  Level FlightAware ADS-B
Fri 04:10:54 AM 36.0510 -87.5490 58° Northeast 504 580 35,000  Level FlightAware ADS-B
Fri 04:11:34 AM 36.0980 -87.4530 59° Northeast 504 580 35,000  Level FlightAware ADS-B
Fri 04:12:18 AM 36.1530 -87.3420 58° Northeast 504 580 35,000  Level FlightAware ADS-B
Fri 04:12:58 AM 36.2020 -87.2440 58° Northeast 504 580 35,000  Level FlightAware ADS-B
Fri 04:13:42 AM 36.2550 -87.1360 59° Northeast 503 579 35,000  Level FlightAware ADS-B
Fri 04:14:22 AM 36.3030 -87.0370 59° Northeast 503 579 35,000  Level FlightAware ADS-B
Fri 04:15:02 AM 36.3510 -86.9390 59° Northeast 502 578 35,000  Level FlightAware ADS-B
Fri 04:15:46 AM 36.4040 -86.8300 59° Northeast 503 579 35,000  Level FlightAware ADS-B
Fri 04:16:28 AM 36.4551 -86.7259 59° Northeast 504 580 35,000  Level FlightAware ADS-B
Fri 04:17:08 AM 36.5020 -86.6290 59° Northeast 502 578 35,000  Level FlightAware ADS-B
Fri 04:17:46 AM 36.5470 -86.5350 59° Northeast 502 578 35,000  Level FlightAware ADS-B
Fri 04:18:19 AM 36.5877 -86.4510 59° Northeast 502 578 35,000  Level FlightAware ADS-B
Fri 04:19:08 AM 36.6450 -86.3320 59° Northeast 503 579 35,000  Level FlightAware ADS-B
Fri 04:19:48 AM 36.6941 -86.2297 59° Northeast 503 579 35,000  Level FlightAware ADS-B
Fri 04:20:34 AM 36.7490 -86.1126 60° Northeast 504 580 35,000  Level FlightAware ADS-B
Fri 04:21:08 AM 36.7890 -86.0302 59° Northeast 504 580 35,000  Level FlightAware ADS-B
Fri 04:21:38 AM 36.8248 -85.9554 59° Northeast 503 579 35,000  Level FlightAware ADS-B
Fri 04:22:09 AM 36.8608 -85.8778 60° Northeast 503 579 35,000  Level FlightAware ADS-B
Fri 04:22:48 AM 36.9078 -85.7807 59° Northeast 502 578 35,000  Level FlightAware ADS-B
Fri 04:23:19 AM 36.9473 -85.7029 58° Northeast 502 578 35,000  Level FlightAware ADS-B
Fri 04:23:56 AM 36.9935 -85.6126 57° Northeast 501 577 35,000  Level FlightAware ADS-B
Fri 04:24:27 AM 37.0313 -85.5392 57° Northeast 501 577 35,000  Level FlightAware ADS-B
Fri 04:24:57 AM 37.0687 -85.4654 58° Northeast 502 578 35,000  Level FlightAware ADS-B
Fri 04:25:27 AM 37.1060 -85.3916 58° Northeast 502 578 35,000  Level FlightAware ADS-B
Fri 04:26:00 AM 37.1460 -85.3103 58° Northeast 503 579 35,000  Level FlightAware ADS-B
Fri 04:26:30 AM 37.1832 -85.2363 58° Northeast 503 579 35,000  Level FlightAware ADS-B
Fri 04:27:00 AM 37.2204 -85.1622 58° Northeast 504 580 35,000  Level FlightAware ADS-B
Fri 04:27:31 AM 37.2580 -85.0855 58° Northeast 504 580 35,000  Level FlightAware ADS-B
Fri 04:28:01 AM 37.2950 -85.0111 58° Northeast 503 579 35,000  Level FlightAware ADS-B
Fri 04:28:31 AM 37.3319 -84.9366 58° Northeast 503 579 35,000  Level FlightAware ADS-B
Fri 04:29:01 AM 37.3691 -84.8620 58° Northeast 504 580 35,000  Level FlightAware ADS-B
Fri 04:29:32 AM 37.4065 -84.7849 59° Northeast 503 579 35,000  Level FlightAware ADS-B
Fri 04:30:02 AM 37.4442 -84.7080 58° Northeast 502 578 35,000  Level FlightAware ADS-B
Fri 04:30:40 AM 37.4896 -84.6162 58° Northeast 500 575 35,000  Level FlightAware ADS-B
Fri 04:31:10 AM 37.5262 -84.5417 58° Northeast 500 575 35,000  Level FlightAware ADS-B
Fri 04:31:40 AM 37.5625 -84.4674 58° Northeast 499 574 35,000  Level FlightAware ADS-B
Fri 04:32:10 AM 37.5991 -84.3931 58° Northeast 499 574 35,000  Level FlightAware ADS-B
Fri 04:32:41 AM 37.6359 -84.3166 59° Northeast 498 573 35,000  Level FlightAware ADS-B
Fri 04:33:11 AM 37.6719 -84.2421 59° Northeast 497 572 35,000  Level FlightAware ADS-B
Fri 04:33:42 AM 37.7088 -84.1656 59° Northeast 496 571 35,000  Level FlightAware ADS-B
Fri 04:34:12 AM 37.7454 -84.0890 59° Northeast 496 571 35,000  Level FlightAware ADS-B
Fri 04:35:09 AM 37.8128 -83.9507 58° Northeast 496 571 35,000  Level FlightAware ADS-B
Fri 04:35:49 AM 37.8611 -83.8489 59° Northeast 497 572 35,000  Level FlightAware ADS-B
Fri 04:40:38 AM 38.2053 -83.1229 59° Northeast 503 579 35,000  Level FlightAware ADS-B
Fri 04:41:09 AM 38.2418 -83.0444 59° Northeast 503 579 35,000  Level FlightAware ADS-B
Fri 04:41:39 AM 38.2775 -82.9682 59° Northeast 502 578 35,000  Level FlightAware ADS-B
Fri 04:42:37 AM 38.3450 -82.8210 60° Northeast 500 575 35,000  Level FlightAware ADS-B
Fri 04:43:22 AM 38.3960 -82.7120 59° Northeast 498 573 35,000  Level FlightAware ADS-B
Fri 04:44:02 AM 38.4450 -82.6060 59° Northeast 495 570 35,000  Level FlightAware ADS-B
Fri 04:44:41 AM 38.4910 -82.5080 59° Northeast 495 570 35,000 -75 Level FlightAware ADS-B
Fri 04:45:22 AM 38.5370 -82.4050 60° Northeast 493 567 34,900  Descending FlightAware ADS-B
Fri 04:45:57 AM 38.5780 -82.3160 59° Northeast 495 570 35,000 76 Climbing FlightAware ADS-B
Fri 04:46:41 AM 38.6280 -82.2050 60° Northeast 496 571 35,000  Level FlightAware ADS-B
Fri 04:47:19 AM 38.6730 -82.1080 59° Northeast 495 570 35,000  Level FlightAware ADS-B
Fri 04:47:54 AM 38.7120 -82.0220 60° Northeast 495 570 35,000  Level FlightAware ADS-B
Fri 04:48:43 AM 38.7690 -81.8930 60° Northeast 492 566 35,000  Level FlightAware ADS-B
Fri 04:49:19 AM 38.8090 -81.8050 60° Northeast 490 564 35,000  Level FlightAware ADS-B
Fri 04:49:57 AM 38.8520 -81.7090 60° Northeast 489 563 35,000  Level FlightAware ADS-B
Fri 04:50:32 AM 38.8900 -81.6240 60° Northeast 488 562 35,000  Level FlightAware ADS-B
Fri 04:51:13 AM 38.9360 -81.5210 60° Northeast 487 560 35,000  Level FlightAware ADS-B
Fri 04:51:55 AM 38.9840 -81.4130 60° Northeast 484 557 35,000  Level FlightAware ADS-B
Fri 04:52:29 AM 39.0200 -81.3300 61° Northeast 483 556 35,000  Level FlightAware ADS-B
Fri 04:53:13 AM 39.0690 -81.2210 60° Northeast 482 555 35,000  Level FlightAware ADS-B
Fri 04:53:53 AM 39.1130 -81.1210 60° Northeast 479 551 35,000  Level FlightAware ADS-B
Fri 04:54:31 AM 39.1550 -81.0260 60° Northeast 481 554 35,000  Level FlightAware ADS-B
Fri 04:55:16 AM 39.2050 -80.9110 61° Northeast 482 555 35,000  Level FlightAware ADS-B
Fri 04:55:56 AM 39.2480 -80.8110 61° Northeast 483 556 35,000  Level FlightAware ADS-B
Fri 04:56:37 AM 39.2920 -80.7100 61° Northeast 483 556 35,000  Level FlightAware ADS-B
Fri 04:57:21 AM 39.3410 -80.5980 60° Northeast 481 554 35,000  Level FlightAware ADS-B
Fri 04:58:13 AM 39.3970 -80.4670 61° Northeast 478 550 35,000  Level FlightAware ADS-B
Fri 04:58:58 AM 39.4450 -80.3550 61° Northeast 475 547 35,000  Level FlightAware ADS-B
Fri 04:59:38 AM 39.4880 -80.2530 61° Northeast 474 545 35,000  Level FlightAware ADS-B
Fri 05:00:18 AM 39.5300 -80.1560 61° Northeast 473 544 35,000  Level FlightAware ADS-B
Fri 05:01:03 AM 39.5750 -80.0530 60° Northeast 471 542 35,000  Level FlightAware ADS-B
Fri 05:01:43 AM 39.6200 -79.9460 61° Northeast 471 542 35,000  Level FlightAware ADS-B
Fri 05:02:24 AM 39.6580 -79.8540 62° Northeast 474 545 35,000  Level FlightAware ADS-B
Fri 05:03:03 AM 39.7030 -79.7470 61° Northeast 475 547 35,000  Level FlightAware ADS-B
Fri 05:03:48 AM 39.7510 -79.6340 61° Northeast 476 548 35,000  Level FlightAware ADS-B
Fri 05:04:34 AM 39.7990 -79.5200 61° Northeast 478 550 35,000  Level FlightAware ADS-B
Fri 05:05:13 AM 39.8400 -79.4190 62° Northeast 479 551 35,000  Level FlightAware ADS-B
Fri 05:05:53 AM 39.8820 -79.3170 62° Northeast 480 552 35,000 70 Level FlightAware ADS-B
Fri 05:06:39 AM 39.9300 -79.2030 61° Northeast 479 551 35,100  Climbing FlightAware ADS-B
Fri 05:07:18 AM 39.9720 -79.1010 62° Northeast 479 551 35,000 -71 Descending FlightAware ADS-B
Fri 05:08:03 AM 40.0190 -78.9870 62° Northeast 479 551 35,000  Level FlightAware ADS-B
Fri 05:08:43 AM 40.0580 -78.8900 62° Northeast 479 551 35,000  Level FlightAware ADS-B
Fri 05:09:28 AM 40.1080 -78.7700 61° Northeast 479 551 35,000  Level FlightAware ADS-B
Fri 05:10:10 AM 40.1490 -78.6680 62° Northeast 479 551 35,000  Level FlightAware ADS-B
Fri 05:10:48 AM 40.1910 -78.5660 62° Northeast 479 551 35,000  Level FlightAware ADS-B
Fri 05:11:30 AM 40.2330 -78.4600 63° Northeast 480 552 35,000  Level FlightAware ADS-B
Fri 05:12:09 AM 40.2740 -78.3570 62° Northeast 481 554 35,000  Level FlightAware ADS-B
Fri 05:12:54 AM 40.3190 -78.2460 62° Northeast 483 556 35,000  Level FlightAware ADS-B
Fri 05:13:42 AM 40.3710 -78.1190 62° Northeast 487 560 35,000  Level FlightAware ADS-B
Fri 05:14:29 AM 40.4150 -78.0030 63° Northeast 488 562 35,000  Level FlightAware ADS-B
Fri 05:15:08 AM 40.4530 -77.9080 62° Northeast 489 563 35,000  Level FlightAware ADS-B
Fri 05:15:20 AM 40.4732 -77.8585 62° Northeast 490 564 35,000  Level FlightAware ADS-B
Fri 05:15:51 AM 40.5054 -77.7766 63° Northeast 492 566 35,000  Level FlightAware ADS-B
Fri 05:16:21 AM 40.5374 -77.6941 63° Northeast 493 567 35,000  Level FlightAware ADS-B
Fri 05:17:15 AM 40.5933 -77.5526 62° Northeast 493 567 35,000  Level FlightAware ADS-B
Fri 05:17:47 AM 40.6263 -77.4675 63° Northeast 491 565 35,000  Level FlightAware ADS-B
Fri 05:18:17 AM 40.6574 -77.3878 63° Northeast 491 565 35,000  Level FlightAware ADS-B
Fri 05:18:50 AM 40.6920 -77.2975 63° Northeast 493 567 35,000  Level FlightAware ADS-B
Fri 05:19:21 AM 40.7235 -77.2173 63° Northeast 493 567 35,000  Level FlightAware ADS-B
Fri 05:19:51 AM 40.7550 -77.1343 63° Northeast 492 566 35,000  Level FlightAware ADS-B
Fri 05:20:23 AM 40.7872 -77.0514 63° Northeast 491 565 35,000  Level FlightAware ADS-B
Fri 05:20:55 AM 40.8206 -76.9635 63° Northeast 491 565 35,000  Level FlightAware ADS-B
Fri 05:21:26 AM 40.8516 -76.8834 63° Northeast 491 565 35,000  Level FlightAware ADS-B
Fri 05:21:56 AM 40.8823 -76.8029 63° Northeast 493 567 35,000  Level FlightAware ADS-B
Fri 05:22:26 AM 40.9135 -76.7223 63° Northeast 494 568 35,000  Level FlightAware ADS-B
Fri 05:22:56 AM 40.9444 -76.6412 63° Northeast 496 571 35,000  Level FlightAware ADS-B
Fri 05:23:23 AM 40.9713 -76.5678 64° Northeast 497 572 35,000  Level FlightAware ADS-B
Fri 05:23:53 AM 41.0020 -76.4861 64° Northeast 499 574 35,000  Level FlightAware ADS-B
Fri 05:24:23 AM 41.0332 -76.4041 63° Northeast 500 575 35,000  Level FlightAware ADS-B
Fri 05:24:53 AM 41.0640 -76.3218 64° Northeast 500 575 35,000  Level FlightAware ADS-B
Fri 05:25:24 AM 41.0955 -76.2365 64° Northeast 500 575 35,000  Level FlightAware ADS-B
Fri 05:25:54 AM 41.1266 -76.1541 63° Northeast 501 577 35,000 100 Level FlightAware ADS-B
Fri 05:26:24 AM 41.1578 -76.0690 64° Northeast 500 575 35,100  Climbing FlightAware ADS-B
Fri 05:26:55 AM 41.1888 -75.9872 63° Northeast 496 571 35,000 -98 Descending FlightAware ADS-B
Fri 05:27:25 AM 41.2192 -75.9050 64° Northeast 498 573 35,000  Level FlightAware ADS-B
Fri 05:27:55 AM 41.2497 -75.8226 64° Northeast 500 575 35,000  Level FlightAware ADS-B
Fri 05:28:25 AM 41.2803 -75.7400 64° Northeast 500 575 35,000  Level FlightAware ADS-B
Fri 05:28:55 AM 41.3108 -75.6571 64° Northeast 501 577 35,000  Level FlightAware ADS-B
Fri 05:29:25 AM 41.3412 -75.5711 65° Northeast 502 578 35,000  Level FlightAware ADS-B
Fri 05:29:56 AM 41.3717 -75.4875 64° Northeast 502 578 35,000  Level FlightAware ADS-B
Fri 05:30:27 AM 41.4037 -75.4013 64° Northeast 504 580 35,000  Level FlightAware ADS-B
Fri 05:30:57 AM 41.4343 -75.3175 64° Northeast 505 581 35,000  Level FlightAware ADS-B
Fri 05:31:28 AM 41.4656 -75.2308 64° Northeast 505 581 35,000  Level FlightAware ADS-B
Fri 05:31:58 AM 41.4962 -75.1439 65° Northeast 505 581 35,000  Level FlightAware ADS-B
Fri 05:32:29 AM 41.5266 -75.0593 64° Northeast 506 582 35,000  Level FlightAware ADS-B
Fri 05:32:59 AM 41.5569 -74.9749 64° Northeast 507 583 35,000  Level FlightAware ADS-B
Fri 05:33:29 AM 41.5874 -74.8902 64° Northeast 509 586 35,000  Level FlightAware ADS-B
Fri 05:33:59 AM 41.6177 -74.8050 65° Northeast 509 586 35,000  Level FlightAware ADS-B
Fri 05:34:29 AM 41.6482 -74.7198 64° Northeast 511 588 35,000  Level FlightAware ADS-B
Fri 05:34:59 AM 41.6787 -74.6314 65° Northeast 512 589 35,000  Level FlightAware ADS-B
Fri 05:35:30 AM 41.7096 -74.5454 64° Northeast 514 592 35,000  Level FlightAware ADS-B
Fri 05:36:01 AM 41.7405 -74.4562 65° Northeast 515 593 35,000  Level FlightAware ADS-B
Fri 05:36:31 AM 41.7715 -74.3666 65° Northeast 517 595 35,000  Level FlightAware ADS-B
Fri 05:37:02 AM 41.8022 -74.2794 65° Northeast 518 596 35,000  Level FlightAware ADS-B
Fri 05:37:32 AM 41.8331 -74.1920 65° Northeast 519 597 35,000  Level FlightAware ADS-B
Fri 05:38:03 AM 41.8637 -74.1014 66° East 520 598 35,000 98 Level FlightAware ADS-B
Fri 05:38:33 AM 41.8943 -74.0135 65° Northeast 521 600 35,100  Climbing FlightAware ADS-B
Fri 05:39:03 AM 41.9246 -73.9254 65° Northeast 522 601 35,000 -97 Descending FlightAware ADS-B
Fri 05:39:35 AM 41.9571 -73.8315 65° Northeast 523 602 35,000  Level FlightAware ADS-B
Fri 05:40:06 AM 41.9879 -73.7400 66° East 523 602 35,000  Level FlightAware ADS-B
Fri 05:40:16 AM 41.9985 -73.7106 64° Northeast 523 602 35,000  Level FlightAware ADS-B
Fri 05:40:37 AM 42.0193 -73.6488 66° East 523 602 35,000  Level FlightAware ADS-B
Fri 05:40:49 AM 42.0315 -73.6133 65° Northeast 524 603 35,000  Level FlightAware ADS-B
Fri 05:41:07 AM 42.0501 -73.5599 65° Northeast 525 604 35,000  Level FlightAware ADS-B
Fri 05:41:37 AM 42.0806 -73.4711 65° Northeast 524 603 35,000  Level FlightAware ADS-B
Fri 05:42:16 AM 42.1190 -73.3550 66° East 525 604 35,000  Level FlightAware ADS-B
Fri 05:42:51 AM 42.1550 -73.2510 65° Northeast 526 605 35,000 -522 Level FlightAware ADS-B
Fri 05:43:48 AM 42.2090 -73.0880 66° East 530 610 34,200 -516 Descending FlightAware ADS-B
Fri 05:44:24 AM 42.2410 -72.9960 65° Northeast 530 610 34,200 -2,842 Level FlightAware ADS-B
Fri 05:45:04 AM 42.2830 -72.8630 67° East 504 580 30,600 -2,097 Descending FlightAware ADS-B
Fri 05:46:07 AM 42.3340 -72.7080 66° East 504 580 30,600 -2,114 Level FlightAware ADS-B
Fri 05:46:49 AM 42.3820 -72.5700 65° Northeast 469 540 26,900 -3,714 Descending FlightAware ADS-B
Fri 05:47:31 AM 42.4190 -72.4620 65° Northeast 443 510 25,400 -2,561 Descending FlightAware ADS-B
Fri 05:48:11 AM 42.4510 -72.3590 67° East 437 503 23,400 -3,316 Descending FlightAware ADS-B
Fri 05:48:47 AM 42.4790 -72.2710 67° East 427 491 21,200 -3,632 Descending FlightAware ADS-B
Fri 05:49:27 AM 42.5100 -72.1720 67° East 412 474 18,800 -3,308 Descending FlightAware ADS-B
Fri 05:50:05 AM 42.5360 -72.0850 68° East 392 451 16,900 -2,478 Descending FlightAware ADS-B
Fri 05:50:59 AM 42.5360 -71.9570 90° East 365 420 15,000 -2,106 Descending FlightAware ADS-B
Fri 05:51:39 AM 42.5270 -71.8690 98° East 361 415 13,600 -2,025 Descending FlightAware ADS-B
Fri 05:52:19 AM 42.5190 -71.7800 97° East 354 407 12,300 -1,680 Descending FlightAware ADS-B
Fri 05:52:54 AM 42.5130 -71.7020 96° East 339 390 11,500 -1,040 Descending FlightAware ADS-B
Fri 05:53:34 AM 42.5040 -71.6210 99° East 314 361 11,000 -750 Descending FlightAware ADS-B
Fri 05:54:14 AM 42.4970 -71.5470 97° East 295 339 10,500 -750 Descending FlightAware ADS-B
Fri 05:54:54 AM 42.4900 -71.4740 97° East 282 325 10,000 -764 Descending FlightAware ADS-B
Fri 05:55:09 AM 42.4880 -71.4530 97° East 282 325 9,800 -800 Descending FlightAware ADS-B
Fri 05:55:39 AM 42.4830 -71.3970 97° East 281 323 9,400 -655 Descending FlightAware ADS-B
Fri 05:56:04 AM 42.4790 -71.3600 98° East 277 319 9,200 -764 Descending FlightAware ADS-B
Fri 05:56:34 AM 42.4740 -71.3000 96° East 271 312 8,700 -873 Descending FlightAware ADS-B
Fri 05:56:59 AM 42.4710 -71.2600 96° East 269 310 8,400 -667 Descending FlightAware ADS-B
Fri 05:57:19 AM 42.4680 -71.2280 97° East 267 307 8,200 -652 Descending FlightAware ADS-B
Fri 05:57:45 AM 42.4640 -71.1880 98° East 270 311 7,900 -857 Descending FlightAware ADS-B
Fri 05:58:15 AM 42.4590 -71.1330 97° East 270 311 7,400 -724 Descending FlightAware ADS-B
Fri 05:58:43 AM 42.4550 -71.0880 97° East 267 307 7,200 -462 Descending FlightAware ADS-B
Fri 05:59:07 AM 42.4500 -71.0480 100° East 267 307 7,000 -500 Descending FlightAware ADS-B
Fri 05:59:19 AM 42.4430 -71.0270 114° Southeast 271 312 6,900 -364 Descending FlightAware ADS-B
Fri 05:59:40 AM 42.4250 -71.0080 142° Southeast 280 322 6,800 -400 Descending FlightAware ADS-B
Fri 06:00:04 AM 42.3940 -70.9900 157° South 281 323 6,600 -429 Descending FlightAware ADS-B
Fri 06:00:36 AM 42.3590 -70.9680 155° Southeast 280 322 6,400 -400 Descending FlightAware ADS-B
Fri 06:01:04 AM 42.3230 -70.9430 153° Southeast 270 311 6,200 -469 Descending FlightAware ADS-B
Fri 06:01:40 AM 42.2800 -70.9440 181° South 270 311 5,900 -636 Descending FlightAware ADS-B
Fri 06:02:10 AM 42.2470 -70.9610 201° Southwest 257 296 5,500 -1,200 Descending FlightAware ADS-B
Fri 06:02:30 AM 42.2240 -70.9730 201° Southwest 244 281 4,900 -692 Descending FlightAware ADS-B
Fri 06:03:02 AM 42.1990 -70.9850 200° South 244 281 4,900 -545 Level FlightAware ADS-B
Fri 06:03:58 AM 42.2490 -70.9720 11° North 242 278 4,100 -1,148 Descending FlightAware ADS-B
Fri 06:04:57 AM 42.2108 -71.0778 11° North 120 138 2,700 -1,008 Descending Boston Center
Fri 06:05:57 AM 42.2461 -71.0603 20° North 129 148 2,100 -627 Descending Boston Center
Fri 06:07:11 AM 42.3000 -71.0333 20° North 138 159 1,300 -672 Descending KA90
Fri 06:08:11 AM 42.3333 -71.0167 20° North 129 148 600 -700 Descending KA90
Fri 06:10:00 AM 42.3500 -71.0000 North  Level FlightAware Approximate

Login

Don't have an account? Register now (free) for customized features, flight alerts, and more!